sensor_id;sensor_type;location;lat;lon;timestamp;P1;durP1;ratioP1;P2;durP2;ratioP2
47519;SDS011;33252;48.122;11.538;2023-03-12T00:01:22;6.90;;;4.80;;
47519;SDS011;33252;48.122;11.538;2023-03-12T00:03:49;9.13;;;4.60;;
47519;SDS011;33252;48.122;11.538;2023-03-12T00:06:16;7.20;;;4.68;;
47519;SDS011;33252;48.122;11.538;2023-03-12T00:08:43;7.55;;;5.18;;
47519;SDS011;33252;48.122;11.538;2023-03-12T00:11:13;8.13;;;5.03;;
47519;SDS011;33252;48.122;11.538;2023-03-12T00:13:41;8.52;;;5.05;;
47519;SDS011;33252;48.122;11.538;2023-03-12T00:16:12;12.77;;;5.43;;
47519;SDS011;33252;48.122;11.538;2023-03-12T00:18:39;9.18;;;5.28;;
47519;SDS011;33252;48.122;11.538;2023-03-12T00:21:07;10.45;;;4.95;;
47519;SDS011;33252;48.122;11.538;2023-03-12T00:23:33;10.20;;;5.03;;
47519;SDS011;33252;48.122;11.538;2023-03-12T00:26:04;8.30;;;4.70;;
47519;SDS011;33252;48.122;11.538;2023-03-12T00:28:32;9.48;;;4.35;;
47519;SDS011;33252;48.122;11.538;2023-03-12T00:30:59;7.72;;;4.70;;
47519;SDS011;33252;48.122;11.538;2023-03-12T00:33:25;8.93;;;4.90;;
47519;SDS011;33252;48.122;11.538;2023-03-12T00:35:52;5.75;;;3.90;;
47519;SDS011;33252;48.122;11.538;2023-03-12T00:38:18;8.95;;;3.75;;
47519;SDS011;33252;48.122;11.538;2023-03-12T00:40:44;7.72;;;3.72;;
47519;SDS011;33252;48.122;11.538;2023-03-12T00:43:10;7.68;;;4.05;;
47519;SDS011;33252;48.122;11.538;2023-03-12T00:45:35;8.23;;;4.18;;
47519;SDS011;33252;48.122;11.538;2023-03-12T00:48:01;7.35;;;4.10;;
47519;SDS011;33252;48.122;11.538;2023-03-12T00:50:27;8.90;;;5.03;;
47519;SDS011;33252;48.122;11.538;2023-03-12T00:52:52;9.23;;;4.38;;
47519;SDS011;33252;48.122;11.538;2023-03-12T00:55:18;6.10;;;4.18;;
47519;SDS011;33252;48.122;11.538;2023-03-12T00:57:44;8.95;;;4.55;;
47519;SDS011;33252;48.122;11.538;2023-03-12T01:00:10;10.25;;;4.55;;
47519;SDS011;33252;48.122;11.538;2023-03-12T01:02:37;8.13;;;3.65;;
47519;SDS011;33252;48.122;11.538;2023-03-12T01:05:04;8.25;;;3.92;;
47519;SDS011;33252;48.122;11.538;2023-03-12T01:07:31;7.18;;;4.32;;
47519;SDS011;33252;48.122;11.538;2023-03-12T01:09:57;7.78;;;4.35;;
47519;SDS011;33252;48.122;11.538;2023-03-12T01:12:22;5.80;;;3.60;;
47519;SDS011;33252;48.122;11.538;2023-03-12T01:14:48;4.72;;;3.20;;
47519;SDS011;33252;48.122;11.538;2023-03-12T01:17:14;6.53;;;3.40;;
47519;SDS011;33252;48.122;11.538;2023-03-12T01:19:40;5.97;;;3.60;;
47519;SDS011;33252;48.122;11.538;2023-03-12T01:22:05;4.68;;;3.28;;
47519;SDS011;33252;48.122;11.538;2023-03-12T01:24:31;8.60;;;4.03;;
47519;SDS011;33252;48.122;11.538;2023-03-12T01:26:56;5.95;;;3.40;;
47519;SDS011;33252;48.122;11.538;2023-03-12T01:29:22;4.25;;;2.67;;
47519;SDS011;33252;48.122;11.538;2023-03-12T01:31:48;3.40;;;2.90;;
47519;SDS011;33252;48.122;11.538;2023-03-12T01:34:14;7.22;;;3.03;;
47519;SDS011;33252;48.122;11.538;2023-03-12T01:36:40;5.13;;;2.70;;
47519;SDS011;33252;48.122;11.538;2023-03-12T01:39:05;5.43;;;3.08;;
47519;SDS011;33252;48.122;11.538;2023-03-12T01:41:31;6.88;;;3.17;;
47519;SDS011;33252;48.122;11.538;2023-03-12T01:43:58;4.22;;;2.70;;
47519;SDS011;33252;48.122;11.538;2023-03-12T01:51:21;4.78;;;2.60;;
47519;SDS011;33252;48.122;11.538;2023-03-12T01:53:51;8.07;;;2.72;;
47519;SDS011;33252;48.122;11.538;2023-03-12T01:56:21;4.13;;;2.10;;
47519;SDS011;33252;48.122;11.538;2023-03-12T01:58:51;6.25;;;2.45;;
47519;SDS011;33252;48.122;11.538;2023-03-12T02:01:19;5.75;;;3.25;;
47519;SDS011;33252;48.122;11.538;2023-03-12T02:03:47;7.35;;;2.90;;
47519;SDS011;33252;48.122;11.538;2023-03-12T02:06:16;6.32;;;3.20;;
47519;SDS011;33252;48.122;11.538;2023-03-12T02:08:44;3.85;;;2.40;;
47519;SDS011;33252;48.122;11.538;2023-03-12T02:11:12;5.25;;;2.90;;
47519;SDS011;33252;48.122;11.538;2023-03-12T02:13:38;3.92;;;2.10;;
47519;SDS011;33252;48.122;11.538;2023-03-12T02:16:04;7.10;;;3.45;;
47519;SDS011;33252;48.122;11.538;2023-03-12T02:18:31;5.80;;;2.83;;
47519;SDS011;33252;48.122;11.538;2023-03-12T02:21:19;4.72;;;2.80;;
47519;SDS011;33252;48.122;11.538;2023-03-12T02:26:35;4.00;;;2.78;;
47519;SDS011;33252;48.122;11.538;2023-03-12T02:29:03;4.60;;;2.95;;
47519;SDS011;33252;48.122;11.538;2023-03-12T02:31:30;3.05;;;2.30;;
47519;SDS011;33252;48.122;11.538;2023-03-12T02:34:01;7.00;;;2.72;;
47519;SDS011;33252;48.122;11.538;2023-03-12T02:36:27;3.80;;;2.97;;
47519;SDS011;33252;48.122;11.538;2023-03-12T02:38:53;4.60;;;2.83;;
47519;SDS011;33252;48.122;11.538;2023-03-12T02:43:58;5.82;;;2.47;;
47519;SDS011;33252;48.122;11.538;2023-03-12T02:46:29;5.45;;;2.85;;
47519;SDS011;33252;48.122;11.538;2023-03-12T02:48:58;3.88;;;2.72;;
47519;SDS011;33252;48.122;11.538;2023-03-12T02:51:25;5.32;;;3.03;;
47519;SDS011;33252;48.122;11.538;2023-03-12T02:53:51;5.75;;;3.47;;
47519;SDS011;33252;48.122;11.538;2023-03-12T02:56:19;6.15;;;3.72;;
47519;SDS011;33252;48.122;11.538;2023-03-12T02:58:51;4.18;;;2.72;;
47519;SDS011;33252;48.122;11.538;2023-03-12T03:01:18;5.45;;;3.20;;
47519;SDS011;33252;48.122;11.538;2023-03-12T03:03:44;5.35;;;2.88;;
47519;SDS011;33252;48.122;11.538;2023-03-12T03:06:10;6.35;;;2.80;;
47519;SDS011;33252;48.122;11.538;2023-03-12T03:08:37;4.63;;;3.72;;
47519;SDS011;33252;48.122;11.538;2023-03-12T03:11:03;4.80;;;3.45;;
47519;SDS011;33252;48.122;11.538;2023-03-12T03:13:29;5.28;;;3.47;;
47519;SDS011;33252;48.122;11.538;2023-03-12T03:15:55;6.65;;;3.30;;
47519;SDS011;33252;48.122;11.538;2023-03-12T03:18:26;7.15;;;3.83;;
47519;SDS011;33252;48.122;11.538;2023-03-12T03:20:55;7.47;;;4.30;;
47519;SDS011;33252;48.122;11.538;2023-03-12T03:23:25;6.03;;;3.88;;
47519;SDS011;33252;48.122;11.538;2023-03-12T03:25:51;8.65;;;5.05;;
47519;SDS011;33252;48.122;11.538;2023-03-12T03:28:18;6.05;;;4.25;;
47519;SDS011;33252;48.122;11.538;2023-03-12T03:30:44;8.20;;;4.53;;
47519;SDS011;33252;48.122;11.538;2023-03-12T03:33:10;7.32;;;4.25;;
47519;SDS011;33252;48.122;11.538;2023-03-12T03:35:36;7.10;;;4.40;;
47519;SDS011;33252;48.122;11.538;2023-03-12T03:38:02;6.05;;;4.93;;
47519;SDS011;33252;48.122;11.538;2023-03-12T03:40:28;6.47;;;4.15;;
47519;SDS011;33252;48.122;11.538;2023-03-12T03:42:54;6.28;;;4.22;;
47519;SDS011;33252;48.122;11.538;2023-03-12T03:45:19;9.68;;;5.30;;
47519;SDS011;33252;48.122;11.538;2023-03-12T03:47:45;6.72;;;4.03;;
47519;SDS011;33252;48.122;11.538;2023-03-12T03:50:11;6.40;;;4.70;;
47519;SDS011;33252;48.122;11.538;2023-03-12T03:52:37;7.18;;;4.32;;
47519;SDS011;33252;48.122;11.538;2023-03-12T03:55:04;7.55;;;3.80;;
47519;SDS011;33252;48.122;11.538;2023-03-12T03:57:30;6.55;;;4.25;;
47519;SDS011;33252;48.122;11.538;2023-03-12T03:59:55;7.07;;;3.83;;
47519;SDS011;33252;48.122;11.538;2023-03-12T04:02:23;6.63;;;4.43;;
47519;SDS011;33252;48.122;11.538;2023-03-12T04:04:50;7.00;;;4.25;;
47519;SDS011;33252;48.122;11.538;2023-03-12T04:07:15;4.97;;;3.88;;
47519;SDS011;33252;48.122;11.538;2023-03-12T04:09:42;5.78;;;3.85;;
47519;SDS011;33252;48.122;11.538;2023-03-12T04:12:08;6.13;;;4.65;;
47519;SDS011;33252;48.122;11.538;2023-03-12T04:14:33;8.52;;;5.95;;
47519;SDS011;33252;48.122;11.538;2023-03-12T04:16:59;8.70;;;5.05;;
47519;SDS011;33252;48.122;11.538;2023-03-12T04:19:25;6.07;;;4.10;;
47519;SDS011;33252;48.122;11.538;2023-03-12T04:21:50;8.90;;;4.82;;
47519;SDS011;33252;48.122;11.538;2023-03-12T04:24:17;8.88;;;4.90;;
47519;SDS011;33252;48.122;11.538;2023-03-12T04:26:44;10.32;;;5.32;;
47519;SDS011;33252;48.122;11.538;2023-03-12T04:29:10;10.95;;;5.95;;
47519;SDS011;33252;48.122;11.538;2023-03-12T04:31:35;11.88;;;5.95;;
47519;SDS011;33252;48.122;11.538;2023-03-12T04:34:01;7.75;;;5.28;;
47519;SDS011;33252;48.122;11.538;2023-03-12T04:36:27;8.82;;;5.05;;
47519;SDS011;33252;48.122;11.538;2023-03-12T04:38:52;8.88;;;5.45;;
47519;SDS011;33252;48.122;11.538;2023-03-12T04:41:19;10.80;;;5.05;;
47519;SDS011;33252;48.122;11.538;2023-03-12T04:43:45;6.57;;;5.28;;
47519;SDS011;33252;48.122;11.538;2023-03-12T04:46:10;9.95;;;5.88;;
47519;SDS011;33252;48.122;11.538;2023-03-12T04:48:36;9.02;;;5.57;;
47519;SDS011;33252;48.122;11.538;2023-03-12T04:51:02;9.85;;;5.10;;
47519;SDS011;33252;48.122;11.538;2023-03-12T04:53:29;11.93;;;5.68;;
47519;SDS011;33252;48.122;11.538;2023-03-12T04:55:55;7.22;;;5.47;;
47519;SDS011;33252;48.122;11.538;2023-03-12T04:58:21;8.18;;;5.45;;
47519;SDS011;33252;48.122;11.538;2023-03-12T05:00:47;7.13;;;5.15;;
47519;SDS011;33252;48.122;11.538;2023-03-12T05:03:13;7.72;;;5.35;;
47519;SDS011;33252;48.122;11.538;2023-03-12T05:05:39;11.48;;;5.80;;
47519;SDS011;33252;48.122;11.538;2023-03-12T05:08:05;8.10;;;6.28;;
47519;SDS011;33252;48.122;11.538;2023-03-12T05:10:31;8.45;;;6.45;;
47519;SDS011;33252;48.122;11.538;2023-03-12T05:12:57;8.95;;;5.78;;
47519;SDS011;33252;48.122;11.538;2023-03-12T05:15:23;11.10;;;6.22;;
47519;SDS011;33252;48.122;11.538;2023-03-12T05:17:49;12.70;;;6.32;;
47519;SDS011;33252;48.122;11.538;2023-03-12T05:20:14;9.77;;;6.05;;
47519;SDS011;33252;48.122;11.538;2023-03-12T05:22:41;10.68;;;5.97;;
47519;SDS011;33252;48.122;11.538;2023-03-12T05:25:07;12.55;;;6.20;;
47519;SDS011;33252;48.122;11.538;2023-03-12T05:27:34;12.38;;;6.63;;
47519;SDS011;33252;48.122;11.538;2023-03-12T05:30:00;9.57;;;6.50;;
47519;SDS011;33252;48.122;11.538;2023-03-12T05:32:26;7.53;;;5.13;;
47519;SDS011;33252;48.122;11.538;2023-03-12T05:34:52;8.20;;;5.40;;
47519;SDS011;33252;48.122;11.538;2023-03-12T05:37:17;8.65;;;5.60;;
47519;SDS011;33252;48.122;11.538;2023-03-12T05:39:43;6.97;;;4.97;;
47519;SDS011;33252;48.122;11.538;2023-03-12T05:42:14;8.52;;;5.40;;
47519;SDS011;33252;48.122;11.538;2023-03-12T05:44:40;9.80;;;5.88;;
47519;SDS011;33252;48.122;11.538;2023-03-12T05:47:06;9.70;;;5.35;;
47519;SDS011;33252;48.122;11.538;2023-03-12T05:49:33;8.98;;;6.93;;
47519;SDS011;33252;48.122;11.538;2023-03-12T05:51:59;9.95;;;5.13;;
47519;SDS011;33252;48.122;11.538;2023-03-12T05:54:24;7.35;;;4.63;;
47519;SDS011;33252;48.122;11.538;2023-03-12T05:56:50;11.18;;;6.00;;
47519;SDS011;33252;48.122;11.538;2023-03-12T05:59:16;10.57;;;5.78;;
47519;SDS011;33252;48.122;11.538;2023-03-12T06:01:42;8.90;;;5.78;;
47519;SDS011;33252;48.122;11.538;2023-03-12T06:04:08;6.43;;;5.40;;
47519;SDS011;33252;48.122;11.538;2023-03-12T06:06:34;8.05;;;5.13;;
47519;SDS011;33252;48.122;11.538;2023-03-12T06:09:02;8.85;;;4.78;;
47519;SDS011;33252;48.122;11.538;2023-03-12T06:11:29;6.40;;;4.82;;
47519;SDS011;33252;48.122;11.538;2023-03-12T06:13:56;8.25;;;5.18;;
47519;SDS011;33252;48.122;11.538;2023-03-12T06:16:23;8.77;;;5.03;;
47519;SDS011;33252;48.122;11.538;2023-03-12T06:18:57;10.50;;;4.72;;
47519;SDS011;33252;48.122;11.538;2023-03-12T06:21:26;9.88;;;3.83;;
47519;SDS011;33252;48.122;11.538;2023-03-12T06:23:54;6.40;;;4.05;;
47519;SDS011;33252;48.122;11.538;2023-03-12T06:26:21;9.63;;;3.58;;
47519;SDS011;33252;48.122;11.538;2023-03-12T06:28:47;6.75;;;4.43;;
47519;SDS011;33252;48.122;11.538;2023-03-12T06:31:14;4.28;;;3.45;;
47519;SDS011;33252;48.122;11.538;2023-03-12T06:33:40;4.82;;;3.47;;
47519;SDS011;33252;48.122;11.538;2023-03-12T06:36:07;5.55;;;3.58;;
47519;SDS011;33252;48.122;11.538;2023-03-12T06:38:34;8.07;;;4.03;;
47519;SDS011;33252;48.122;11.538;2023-03-12T06:41:04;7.22;;;3.75;;
47519;SDS011;33252;48.122;11.538;2023-03-12T06:43:32;4.50;;;2.88;;
47519;SDS011;33252;48.122;11.538;2023-03-12T06:45:59;5.03;;;3.28;;
47519;SDS011;33252;48.122;11.538;2023-03-12T06:48:26;5.03;;;2.95;;
47519;SDS011;33252;48.122;11.538;2023-03-12T06:50:53;5.15;;;3.22;;
47519;SDS011;33252;48.122;11.538;2023-03-12T06:53:20;8.02;;;3.17;;
47519;SDS011;33252;48.122;11.538;2023-03-12T06:55:47;3.47;;;2.33;;
47519;SDS011;33252;48.122;11.538;2023-03-12T06:58:14;6.35;;;2.75;;
47519;SDS011;33252;48.122;11.538;2023-03-12T07:00:39;6.47;;;3.45;;
47519;SDS011;33252;48.122;11.538;2023-03-12T07:03:05;5.43;;;3.05;;
47519;SDS011;33252;48.122;11.538;2023-03-12T07:05:31;5.63;;;2.88;;
47519;SDS011;33252;48.122;11.538;2023-03-12T07:07:57;4.65;;;2.17;;
47519;SDS011;33252;48.122;11.538;2023-03-12T07:10:22;4.63;;;2.65;;
47519;SDS011;33252;48.122;11.538;2023-03-12T07:12:48;4.70;;;1.95;;
47519;SDS011;33252;48.122;11.538;2023-03-12T07:15:14;3.10;;;2.33;;
47519;SDS011;33252;48.122;11.538;2023-03-12T07:17:40;6.68;;;2.72;;
47519;SDS011;33252;48.122;11.538;2023-03-12T07:20:06;2.58;;;1.50;;
47519;SDS011;33252;48.122;11.538;2023-03-12T07:22:32;2.00;;;1.33;;
47519;SDS011;33252;48.122;11.538;2023-03-12T07:24:58;3.88;;;2.10;;
47519;SDS011;33252;48.122;11.538;2023-03-12T07:27:24;4.13;;;2.38;;
47519;SDS011;33252;48.122;11.538;2023-03-12T07:29:49;5.50;;;2.50;;
47519;SDS011;33252;48.122;11.538;2023-03-12T07:32:16;3.58;;;2.40;;
47519;SDS011;33252;48.122;11.538;2023-03-12T07:34:42;3.58;;;1.17;;
47519;SDS011;33252;48.122;11.538;2023-03-12T07:37:08;3.60;;;1.75;;
47519;SDS011;33252;48.122;11.538;2023-03-12T07:39:34;4.03;;;2.00;;
47519;SDS011;33252;48.122;11.538;2023-03-12T07:42:00;6.63;;;1.85;;
47519;SDS011;33252;48.122;11.538;2023-03-12T07:44:25;3.70;;;1.88;;
47519;SDS011;33252;48.122;11.538;2023-03-12T07:46:51;3.88;;;1.80;;
47519;SDS011;33252;48.122;11.538;2023-03-12T07:49:18;3.00;;;1.70;;
47519;SDS011;33252;48.122;11.538;2023-03-12T07:51:44;2.90;;;1.85;;
47519;SDS011;33252;48.122;11.538;2023-03-12T07:54:10;3.03;;;1.80;;
47519;SDS011;33252;48.122;11.538;2023-03-12T07:56:36;2.53;;;1.83;;
47519;SDS011;33252;48.122;11.538;2023-03-12T07:59:02;3.88;;;1.60;;
47519;SDS011;33252;48.122;11.538;2023-03-12T08:01:28;3.25;;;1.77;;
47519;SDS011;33252;48.122;11.538;2023-03-12T08:03:59;4.18;;;1.80;;
47519;SDS011;33252;48.122;11.538;2023-03-12T08:06:25;2.65;;;2.10;;
47519;SDS011;33252;48.122;11.538;2023-03-12T08:08:51;3.97;;;2.33;;
47519;SDS011;33252;48.122;11.538;2023-03-12T08:11:17;5.25;;;2.58;;
47519;SDS011;33252;48.122;11.538;2023-03-12T08:13:43;3.58;;;1.80;;
47519;SDS011;33252;48.122;11.538;2023-03-12T08:16:08;2.72;;;1.83;;
47519;SDS011;33252;48.122;11.538;2023-03-12T08:18:34;3.33;;;2.30;;
47519;SDS011;33252;48.122;11.538;2023-03-12T08:21:00;3.95;;;2.30;;
47519;SDS011;33252;48.122;11.538;2023-03-12T08:23:25;5.40;;;2.72;;
47519;SDS011;33252;48.122;11.538;2023-03-12T08:25:51;4.50;;;2.50;;
47519;SDS011;33252;48.122;11.538;2023-03-12T08:28:19;5.00;;;2.00;;
47519;SDS011;33252;48.122;11.538;2023-03-12T08:30:50;3.50;;;1.92;;
47519;SDS011;33252;48.122;11.538;2023-03-12T08:33:17;3.72;;;2.00;;
47519;SDS011;33252;48.122;11.538;2023-03-12T08:35:43;3.70;;;2.00;;
47519;SDS011;33252;48.122;11.538;2023-03-12T08:38:09;5.10;;;1.92;;
47519;SDS011;33252;48.122;11.538;2023-03-12T08:40:35;5.78;;;2.15;;
47519;SDS011;33252;48.122;11.538;2023-03-12T08:43:01;2.58;;;1.50;;
47519;SDS011;33252;48.122;11.538;2023-03-12T08:45:28;4.97;;;2.67;;
47519;SDS011;33252;48.122;11.538;2023-03-12T08:47:53;4.22;;;1.83;;
47519;SDS011;33252;48.122;11.538;2023-03-12T08:50:19;3.78;;;2.55;;
47519;SDS011;33252;48.122;11.538;2023-03-12T08:52:46;3.10;;;2.05;;
47519;SDS011;33252;48.122;11.538;2023-03-12T08:55:12;4.10;;;1.70;;
47519;SDS011;33252;48.122;11.538;2023-03-12T08:57:38;4.35;;;2.00;;
47519;SDS011;33252;48.122;11.538;2023-03-12T09:00:04;2.63;;;1.63;;
47519;SDS011;33252;48.122;11.538;2023-03-12T09:02:35;3.95;;;2.30;;
47519;SDS011;33252;48.122;11.538;2023-03-12T09:05:01;4.35;;;2.85;;
47519;SDS011;33252;48.122;11.538;2023-03-12T09:07:29;7.07;;;3.47;;
47519;SDS011;33252;48.122;11.538;2023-03-12T09:09:56;4.85;;;3.20;;
47519;SDS011;33252;48.122;11.538;2023-03-12T09:12:22;5.18;;;3.25;;
47519;SDS011;33252;48.122;11.538;2023-03-12T09:14:49;4.30;;;3.17;;
47519;SDS011;33252;48.122;11.538;2023-03-12T09:17:15;6.35;;;3.55;;
47519;SDS011;33252;48.122;11.538;2023-03-12T09:19:42;4.47;;;2.92;;
47519;SDS011;33252;48.122;11.538;2023-03-12T09:22:08;3.60;;;2.92;;
47519;SDS011;33252;48.122;11.538;2023-03-12T09:24:34;3.80;;;2.65;;
47519;SDS011;33252;48.122;11.538;2023-03-12T09:27:00;4.90;;;2.90;;
47519;SDS011;33252;48.122;11.538;2023-03-12T09:29:26;6.40;;;2.80;;
47519;SDS011;33252;48.122;11.538;2023-03-12T09:31:52;4.45;;;2.75;;
47519;SDS011;33252;48.122;11.538;2023-03-12T09:34:17;5.45;;;2.80;;
47519;SDS011;33252;48.122;11.538;2023-03-12T09:36:43;3.97;;;2.60;;
47519;SDS011;33252;48.122;11.538;2023-03-12T09:39:09;4.88;;;2.70;;
47519;SDS011;33252;48.122;11.538;2023-03-12T09:41:35;2.88;;;2.17;;
47519;SDS011;33252;48.122;11.538;2023-03-12T09:49:47;4.10;;;2.53;;
47519;SDS011;33252;48.122;11.538;2023-03-12T09:55:11;2.60;;;1.83;;
47519;SDS011;33252;48.122;11.538;2023-03-12T09:57:42;1.90;;;1.45;;
47519;SDS011;33252;48.122;11.538;2023-03-12T10:00:12;3.30;;;1.60;;
47519;SDS011;33252;48.122;11.538;2023-03-12T10:13:43;3.47;;;1.95;;
47519;SDS011;33252;48.122;11.538;2023-03-12T10:16:19;2.17;;;1.67;;
47519;SDS011;33252;48.122;11.538;2023-03-12T10:26:58;3.00;;;1.73;;
47519;SDS011;33252;48.122;11.538;2023-03-12T10:32:06;2.47;;;1.50;;
47519;SDS011;33252;48.122;11.538;2023-03-12T10:34:55;4.03;;;2.80;;
47519;SDS011;33252;48.122;11.538;2023-03-12T10:42:37;2.08;;;1.42;;
47519;SDS011;33252;48.122;11.538;2023-03-12T10:48:17;2.13;;;1.33;;
47519;SDS011;33252;48.122;11.538;2023-03-12T10:50:59;2.63;;;1.25;;
47519;SDS011;33252;48.122;11.538;2023-03-12T10:53:30;1.73;;;1.30;;
47519;SDS011;33252;48.122;11.538;2023-03-12T10:55:59;2.88;;;1.67;;
47519;SDS011;33252;48.122;11.538;2023-03-12T10:58:40;1.75;;;1.30;;
47519;SDS011;33252;48.122;11.538;2023-03-12T11:03:39;2.72;;;1.63;;
47519;SDS011;33252;48.122;11.538;2023-03-12T11:06:05;3.50;;;1.85;;
47519;SDS011;33252;48.122;11.538;2023-03-12T11:08:39;2.15;;;1.42;;
47519;SDS011;33252;48.122;11.538;2023-03-12T11:11:06;3.33;;;2.03;;
47519;SDS011;33252;48.122;11.538;2023-03-12T11:18:42;1.80;;;1.10;;
47519;SDS011;33252;48.122;11.538;2023-03-12T11:21:24;1.98;;;1.30;;
47519;SDS011;33252;48.122;11.538;2023-03-12T11:26:22;2.15;;;1.38;;
47519;SDS011;33252;48.122;11.538;2023-03-12T11:28:51;2.10;;;0.98;;
47519;SDS011;33252;48.122;11.538;2023-03-12T11:31:24;3.90;;;1.10;;
47519;SDS011;33252;48.122;11.538;2023-03-12T11:33:56;1.95;;;0.98;;
47519;SDS011;33252;48.122;11.538;2023-03-12T11:42:38;2.13;;;1.70;;
47519;SDS011;33252;48.122;11.538;2023-03-12T11:45:17;1.92;;;1.23;;
47519;SDS011;33252;48.122;11.538;2023-03-12T11:47:58;3.92;;;1.65;;
47519;SDS011;33252;48.122;11.538;2023-03-12T11:56:47;2.92;;;1.25;;
47519;SDS011;33252;48.122;11.538;2023-03-12T11:59:38;2.75;;;1.63;;
47519;SDS011;33252;48.122;11.538;2023-03-12T12:20:57;3.88;;;2.35;;
47519;SDS011;33252;48.122;11.538;2023-03-12T12:26:37;2.55;;;1.45;;
47519;SDS011;33252;48.122;11.538;2023-03-12T12:29:44;3.67;;;2.40;;
47519;SDS011;33252;48.122;11.538;2023-03-12T12:35:40;3.65;;;2.45;;
47519;SDS011;33252;48.122;11.538;2023-03-12T12:38:15;3.08;;;2.03;;
47519;SDS011;33252;48.122;11.538;2023-03-12T12:40:50;3.60;;;2.53;;
47519;SDS011;33252;48.122;11.538;2023-03-12T12:43:24;3.28;;;2.00;;
47519;SDS011;33252;48.122;11.538;2023-03-12T12:45:59;3.30;;;2.08;;
47519;SDS011;33252;48.122;11.538;2023-03-12T12:48:37;3.95;;;2.35;;
47519;SDS011;33252;48.122;11.538;2023-03-12T12:51:08;5.95;;;3.47;;
47519;SDS011;33252;48.122;11.538;2023-03-12T12:53:45;4.45;;;2.58;;
47519;SDS011;33252;48.122;11.538;2023-03-12T12:56:32;7.32;;;3.28;;
47519;SDS011;33252;48.122;11.538;2023-03-12T13:01:57;4.93;;;2.95;;
47519;SDS011;33252;48.122;11.538;2023-03-12T13:07:27;4.22;;;2.85;;
47519;SDS011;33252;48.122;11.538;2023-03-12T13:09:53;5.18;;;2.58;;
47519;SDS011;33252;48.122;11.538;2023-03-12T13:12:24;4.03;;;3.08;;
47519;SDS011;33252;48.122;11.538;2023-03-12T13:15:00;5.78;;;3.20;;
47519;SDS011;33252;48.122;11.538;2023-03-12T13:20:31;3.25;;;2.40;;
47519;SDS011;33252;48.122;11.538;2023-03-12T13:28:32;6.07;;;2.67;;
47519;SDS011;33252;48.122;11.538;2023-03-12T13:33:53;5.28;;;2.80;;
47519;SDS011;33252;48.122;11.538;2023-03-12T13:36:22;5.65;;;3.08;;
47519;SDS011;33252;48.122;11.538;2023-03-12T13:41:35;4.55;;;2.25;;
47519;SDS011;33252;48.122;11.538;2023-03-12T13:46:48;4.00;;;2.03;;
47519;SDS011;33252;48.122;11.538;2023-03-12T13:49:21;3.90;;;2.15;;
47519;SDS011;33252;48.122;11.538;2023-03-12T13:52:31;5.63;;;2.40;;
47519;SDS011;33252;48.122;11.538;2023-03-12T13:55:14;6.38;;;2.75;;
47519;SDS011;33252;48.122;11.538;2023-03-12T14:00:25;4.53;;;2.38;;
47519;SDS011;33252;48.122;11.538;2023-03-12T14:03:03;5.00;;;3.10;;
47519;SDS011;33252;48.122;11.538;2023-03-12T14:05:44;9.45;;;4.90;;
47519;SDS011;33252;48.122;11.538;2023-03-12T14:08:24;5.85;;;2.92;;
47519;SDS011;33252;48.122;11.538;2023-03-12T14:14:07;10.23;;;3.25;;
47519;SDS011;33252;48.122;11.538;2023-03-12T14:19:06;4.78;;;1.75;;
47519;SDS011;33252;48.122;11.538;2023-03-12T14:21:37;4.20;;;2.13;;
47519;SDS011;33252;48.122;11.538;2023-03-12T14:24:06;3.80;;;1.55;;
47519;SDS011;33252;48.122;11.538;2023-03-12T14:26:39;3.42;;;1.45;;
47519;SDS011;33252;48.122;11.538;2023-03-12T14:31:41;3.17;;;0.75;;
47519;SDS011;33252;48.122;11.538;2023-03-12T14:34:11;2.65;;;0.82;;
47519;SDS011;33252;48.122;11.538;2023-03-12T14:36:46;2.03;;;1.17;;
47519;SDS011;33252;48.122;11.538;2023-03-12T14:39:26;4.18;;;0.90;;
47519;SDS011;33252;48.122;11.538;2023-03-12T14:42:00;3.33;;;0.70;;
47519;SDS011;33252;48.122;11.538;2023-03-12T14:44:29;2.60;;;1.23;;
47519;SDS011;33252;48.122;11.538;2023-03-12T14:49:26;2.30;;;0.88;;
47519;SDS011;33252;48.122;11.538;2023-03-12T14:51:53;2.28;;;0.82;;
47519;SDS011;33252;48.122;11.538;2023-03-12T14:54:20;2.70;;;1.00;;
47519;SDS011;33252;48.122;11.538;2023-03-12T14:56:49;2.67;;;0.93;;
47519;SDS011;33252;48.122;11.538;2023-03-12T14:59:22;3.15;;;1.13;;
47519;SDS011;33252;48.122;11.538;2023-03-12T15:04:38;3.30;;;0.88;;
47519;SDS011;33252;48.122;11.538;2023-03-12T15:07:05;1.30;;;0.65;;
47519;SDS011;33252;48.122;11.538;2023-03-12T15:09:36;3.42;;;0.80;;
47519;SDS011;33252;48.122;11.538;2023-03-12T15:12:16;1.80;;;0.95;;
47519;SDS011;33252;48.122;11.538;2023-03-12T15:14:45;4.18;;;0.70;;
47519;SDS011;33252;48.122;11.538;2023-03-12T15:17:14;0.80;;;0.60;;
47519;SDS011;33252;48.122;11.538;2023-03-12T15:19:42;3.20;;;1.35;;
47519;SDS011;33252;48.122;11.538;2023-03-12T15:22:10;3.65;;;0.52;;
47519;SDS011;33252;48.122;11.538;2023-03-12T15:24:43;1.77;;;0.50;;
47519;SDS011;33252;48.122;11.538;2023-03-12T15:27:29;2.05;;;0.63;;
47519;SDS011;33252;48.122;11.538;2023-03-12T15:29:57;4.88;;;2.53;;
47519;SDS011;33252;48.122;11.538;2023-03-12T15:32:24;1.33;;;0.45;;
47519;SDS011;33252;48.122;11.538;2023-03-12T15:34:51;2.65;;;0.70;;
47519;SDS011;33252;48.122;11.538;2023-03-12T15:40:15;3.70;;;0.90;;
47519;SDS011;33252;48.122;11.538;2023-03-12T15:42:46;2.72;;;0.68;;
47519;SDS011;33252;48.122;11.538;2023-03-12T15:45:20;1.52;;;0.55;;
47519;SDS011;33252;48.122;11.538;2023-03-12T15:47:53;1.90;;;0.50;;
47519;SDS011;33252;48.122;11.538;2023-03-12T15:50:28;1.20;;;0.45;;
47519;SDS011;33252;48.122;11.538;2023-03-12T15:52:57;1.30;;;0.47;;
47519;SDS011;33252;48.122;11.538;2023-03-12T15:55:28;1.75;;;0.75;;
47519;SDS011;33252;48.122;11.538;2023-03-12T15:57:56;2.60;;;0.70;;
47519;SDS011;33252;48.122;11.538;2023-03-12T16:00:24;3.72;;;0.68;;
47519;SDS011;33252;48.122;11.538;2023-03-12T16:03:05;1.83;;;0.63;;
47519;SDS011;33252;48.122;11.538;2023-03-12T16:05:40;3.33;;;0.73;;
47519;SDS011;33252;48.122;11.538;2023-03-12T16:08:12;2.20;;;0.60;;
47519;SDS011;33252;48.122;11.538;2023-03-12T16:10:45;0.43;;;0.30;;
47519;SDS011;33252;48.122;11.538;2023-03-12T16:13:18;0.70;;;0.30;;
47519;SDS011;33252;48.122;11.538;2023-03-12T16:15:46;3.45;;;0.57;;
47519;SDS011;33252;48.122;11.538;2023-03-12T16:18:13;2.38;;;1.17;;
47519;SDS011;33252;48.122;11.538;2023-03-12T16:20:41;0.82;;;0.47;;
47519;SDS011;33252;48.122;11.538;2023-03-12T16:23:07;3.10;;;1.23;;
47519;SDS011;33252;48.122;11.538;2023-03-12T16:25:33;3.10;;;0.45;;
47519;SDS011;33252;48.122;11.538;2023-03-12T16:27:59;0.68;;;0.40;;
47519;SDS011;33252;48.122;11.538;2023-03-12T16:30:29;1.38;;;0.40;;
47519;SDS011;33252;48.122;11.538;2023-03-12T16:32:57;1.48;;;0.55;;
47519;SDS011;33252;48.122;11.538;2023-03-12T16:35:24;2.60;;;0.73;;
47519;SDS011;33252;48.122;11.538;2023-03-12T16:37:52;1.42;;;0.50;;
47519;SDS011;33252;48.122;11.538;2023-03-12T16:40:18;2.10;;;0.60;;
47519;SDS011;33252;48.122;11.538;2023-03-12T16:42:48;0.80;;;0.47;;
47519;SDS011;33252;48.122;11.538;2023-03-12T16:45:17;2.45;;;0.60;;
47519;SDS011;33252;48.122;11.538;2023-03-12T16:47:43;2.63;;;0.50;;
47519;SDS011;33252;48.122;11.538;2023-03-12T16:50:13;1.23;;;0.60;;
47519;SDS011;33252;48.122;11.538;2023-03-12T16:52:40;6.05;;;1.30;;
47519;SDS011;33252;48.122;11.538;2023-03-12T16:55:06;1.65;;;0.70;;
47519;SDS011;33252;48.122;11.538;2023-03-12T16:57:34;1.45;;;0.57;;
47519;SDS011;33252;48.122;11.538;2023-03-12T17:00:03;3.05;;;0.68;;